Time;durP1;ratioP1;P1;durP2;ratioP2;P2;SDS_P1;SDS_P2;PMS_P1;PMS_P2;Temp;Humidity;BMP_temperature;BMP_pressure;BME280_temperature;BME280_humidity;BME280_pressure;Samples;Min_cycle;Max_cycle;Signal;HPM_P1;HPM_P2
2024/03/31 00:04:08;;;;;;;0.40;0.40;;;12.10;99.30;;;;;;10539031;28;20257;-79
2024/03/31 00:09:11;;;;;;;0.50;0.50;;;12.10;99.20;;;;;;10520014;28;20215;-78
2024/03/31 00:14:14;;;;;;;0.60;0.60;;;12.10;99.30;;;;;;10520446;28;20696;-78
2024/03/31 00:19:16;;;;;;;0.50;0.50;;;12.20;99.30;;;;;;10531868;28;20215;-79
2024/03/31 00:24:20;;;;;;;0.60;0.60;;;12.20;99.10;;;;;;10537654;28;20227;-80
2024/03/31 00:29:22;;;;;;;0.50;0.50;;;12.20;99.10;;;;;;10537816;28;20208;-77
2024/03/31 00:34:25;;;;;;;0.40;0.40;;;12.30;99.00;;;;;;10538033;28;20636;-78
2024/03/31 00:39:28;;;;;;;0.50;0.50;;;12.30;98.80;;;;;;10519451;28;20196;-78
2024/03/31 00:44:31;;;;;;;0.40;0.40;;;12.30;98.70;;;;;;10510255;28;20578;-78
2024/03/31 00:49:33;;;;;;;0.40;0.40;;;12.40;98.70;;;;;;10536378;28;20246;-78
2024/03/31 00:54:43;;;;;;;0.40;0.40;;;12.40;98.70;;;;;;10518150;28;20219;-78
2024/03/31 00:59:45;;;;;;;0.40;0.40;;;12.50;98.50;;;;;;10533269;28;20219;-78
2024/03/31 01:04:47;;;;;;;0.40;0.40;;;12.50;98.50;;;;;;10532355;28;20224;-78
2024/03/31 01:09:51;;;;;;;0.40;0.40;;;12.50;98.90;;;;;;10536114;28;20236;-78
2024/03/31 01:14:54;;;;;;;0.40;0.40;;;12.60;99.40;;;;;;10517208;28;20226;-78
2024/03/31 01:19:58;;;;;;;0.40;0.40;;;12.60;99.50;;;;;;10517374;28;20200;-77
2024/03/31 01:25:02;;;;;;;0.40;0.40;;;12.60;99.60;;;;;;10516919;28;20223;-78
2024/03/31 01:30:05;;;;;;;0.40;0.40;;;12.60;99.60;;;;;;10516831;28;20598;-78
2024/03/31 01:35:08;;;;;;;0.40;0.40;;;12.60;99.50;;;;;;10517323;28;20252;-78
2024/03/31 01:40:12;;;;;;;0.40;0.40;;;12.60;99.50;;;;;;10516696;28;20257;-78
2024/03/31 01:45:14;;;;;;;0.40;0.40;;;12.50;99.60;;;;;;10516897;28;20296;-77
2024/03/31 01:50:17;;;;;;;0.40;0.40;;;12.50;99.60;;;;;;10517055;28;20257;-77
2024/03/31 01:55:20;;;;;;;0.40;0.40;;;12.50;99.70;;;;;;10516416;28;20241;-77
2024/03/31 02:00:23;;;;;;;0.40;0.40;;;12.60;99.70;;;;;;10523650;28;20198;-77
2024/03/31 02:05:25;;;;;;;0.60;0.60;;;12.60;99.80;;;;;;10516354;28;20238;-78
2024/03/31 02:10:30;;;;;;;0.60;0.60;;;12.60;99.90;;;;;;10525952;28;20192;-78
2024/03/31 02:15:32;;;;;;;0.60;0.60;;;12.60;99.90;;;;;;10515743;28;20276;-77
2024/03/31 02:20:35;;;;;;;0.50;0.50;;;12.60;99.60;;;;;;10534358;28;20665;-78
2024/03/31 02:25:38;;;;;;;0.60;0.60;;;12.60;99.20;;;;;;10533866;28;20231;-78
2024/03/31 02:30:42;;;;;;;0.50;0.50;;;12.60;99.30;;;;;;10534755;28;20258;-77
2024/03/31 02:35:44;;;;;;;0.60;0.60;;;12.50;99.20;;;;;;10527343;28;20226;-79
2024/03/31 02:40:48;;;;;;;0.60;0.60;;;12.50;99.00;;;;;;10510272;28;20332;-77
2024/03/31 02:45:50;;;;;;;0.63;0.63;;;12.50;99.10;;;;;;10515310;28;20219;-78
2024/03/31 02:50:53;;;;;;;0.60;0.60;;;12.40;98.90;;;;;;10515900;28;20668;-78
2024/03/31 02:55:57;;;;;;;0.60;0.60;;;12.30;99.00;;;;;;10533144;28;20280;-78
2024/03/31 03:01:06;;;;;;;0.60;0.60;;;12.30;99.30;;;;;;10515434;28;20626;-78
2024/03/31 03:06:08;;;;;;;0.60;0.60;;;12.20;99.10;;;;;;10514736;28;20216;-78
2024/03/31 03:11:12;;;;;;;0.50;0.50;;;12.20;99.20;;;;;;10515288;28;20195;-78
2024/03/31 03:16:14;;;;;;;0.50;0.50;;;12.20;99.40;;;;;;10532825;28;20223;-78
2024/03/31 03:21:16;;;;;;;0.60;0.60;;;12.10;99.40;;;;;;10515340;28;20199;-77
2024/03/31 03:26:20;;;;;;;0.60;0.60;;;12.00;99.60;;;;;;10533149;28;20277;-78
2024/03/31 03:31:22;;;;;;;0.80;0.80;;;11.90;99.50;;;;;;10519697;28;20192;-78
2024/03/31 03:36:25;;;;;;;0.60;0.60;;;11.80;99.50;;;;;;10522050;28;20724;-78
2024/03/31 03:41:29;;;;;;;0.50;0.50;;;11.70;99.70;;;;;;10521672;28;20229;-78
2024/03/31 03:46:31;;;;;;;0.40;0.40;;;11.70;99.90;;;;;;10544641;28;20212;-78
2024/03/31 03:51:36;;;;;;;0.43;0.43;;;11.60;99.90;;;;;;10521683;28;20200;-78
2024/03/31 03:56:44;;;;;;;0.60;0.60;;;11.60;99.90;;;;;;10521075;28;20293;-78
2024/03/31 04:01:46;;;;;;;0.80;0.80;;;11.50;99.90;;;;;;10520069;28;20212;-77
2024/03/31 04:06:49;;;;;;;0.87;0.87;;;11.50;99.90;;;;;;10519165;28;20211;-77
2024/03/31 04:11:53;;;;;;;0.70;0.70;;;11.50;99.90;;;;;;10519362;28;20685;-77
2024/03/31 04:16:55;;;;;;;0.70;0.70;;;11.50;99.90;;;;;;10518501;28;20589;-77
2024/03/31 04:21:58;;;;;;;0.60;0.60;;;11.50;99.90;;;;;;10537383;28;20669;-78
2024/03/31 04:27:02;;;;;;;0.60;0.60;;;11.50;99.90;;;;;;10518598;28;20223;-77
2024/03/31 04:32:05;;;;;;;0.77;0.77;;;11.50;99.90;;;;;;10518879;28;20240;-77
2024/03/31 04:37:08;;;;;;;0.70;0.70;;;11.40;99.90;;;;;;10518014;28;20223;-76
2024/03/31 04:42:12;;;;;;;0.87;0.87;;;11.50;99.90;;;;;;10516573;28;20203;-76
2024/03/31 04:47:15;;;;;;;0.70;0.70;;;11.50;99.90;;;;;;10535807;28;20223;-77
2024/03/31 04:52:17;;;;;;;0.70;0.70;;;11.50;99.90;;;;;;10517766;28;20257;-77
2024/03/31 04:57:25;;;;;;;0.70;0.70;;;11.60;99.90;;;;;;10517090;28;20223;-77
2024/03/31 05:02:27;;;;;;;0.80;0.80;;;11.60;99.90;;;;;;10517594;28;20203;-77
2024/03/31 05:07:30;;;;;;;0.90;0.90;;;11.70;99.90;;;;;;10511273;28;20212;-77
2024/03/31 05:12:33;;;;;;;0.80;0.80;;;11.70;99.90;;;;;;10517067;28;20571;-77
2024/03/31 05:17:36;;;;;;;0.70;0.70;;;11.70;99.90;;;;;;10534437;28;20646;-77
2024/03/31 05:22:38;;;;;;;0.70;0.70;;;11.70;99.90;;;;;;10516769;28;20195;-77
2024/03/31 05:27:42;;;;;;;1.10;1.10;;;11.70;99.90;;;;;;10516023;28;20232;-77
2024/03/31 05:32:45;;;;;;;0.83;0.83;;;11.70;99.90;;;;;;10516256;28;20200;-77
2024/03/31 05:37:57;;;;;;;0.80;0.80;;;11.80;99.90;;;;;;10515735;28;20219;-77
2024/03/31 05:43:01;;;;;;;0.90;0.90;;;11.80;99.90;;;;;;10516047;28;20199;-77
2024/03/31 05:48:05;;;;;;;1.00;1.00;;;11.70;99.90;;;;;;10515383;28;20204;-77
2024/03/31 05:53:11;;;;;;;0.87;0.87;;;11.70;99.90;;;;;;10515004;28;20597;-77
2024/03/31 05:58:15;;;;;;;1.17;1.17;;;11.80;99.90;;;;;;10515361;28;20781;-77
2024/03/31 06:03:17;;;;;;;0.90;0.90;;;11.90;99.90;;;;;;10515265;28;20595;-75
2024/03/31 06:08:20;;;;;;;0.87;0.87;;;12.00;99.90;;;;;;10532990;28;20208;-77
2024/03/31 06:13:24;;;;;;;0.80;0.80;;;12.10;99.90;;;;;;10514864;28;20203;-77
2024/03/31 06:18:27;;;;;;;0.70;0.70;;;12.10;99.90;;;;;;10514413;28;20223;-78
2024/03/31 06:23:30;;;;;;;0.90;0.90;;;12.10;99.90;;;;;;10514709;28;20265;-77
2024/03/31 06:28:34;;;;;;;0.70;0.70;;;12.10;99.90;;;;;;10514943;28;20212;-77
2024/03/31 06:33:36;;;;;;;0.70;0.70;;;12.20;99.90;;;;;;10514600;28;20560;-77
2024/03/31 06:38:41;;;;;;;0.70;0.70;;;12.30;99.90;;;;;;10514005;28;20235;-77
2024/03/31 06:43:45;;;;;;;0.90;0.90;;;12.50;99.90;;;;;;10514485;28;20196;-77
2024/03/31 06:48:47;;;;;;;0.70;0.70;;;12.60;99.90;;;;;;10514147;28;20773;-77
2024/03/31 06:53:50;;;;;;;0.80;0.80;;;12.60;99.90;;;;;;10514324;28;20191;-77
2024/03/31 06:58:54;;;;;;;0.83;0.83;;;12.70;99.90;;;;;;10514167;28;20223;-77
2024/03/31 07:03:56;;;;;;;0.70;0.70;;;12.60;99.90;;;;;;10523611;28;20196;-77
2024/03/31 07:08:59;;;;;;;0.70;0.70;;;12.60;99.90;;;;;;10539623;28;20211;-77
2024/03/31 07:14:03;;;;;;;0.80;0.80;;;12.50;99.90;;;;;;10521723;28;20202;-77
2024/03/31 07:19:05;;;;;;;0.87;0.87;;;12.50;99.90;;;;;;10521015;28;20225;-78
2024/03/31 07:24:09;;;;;;;1.00;1.00;;;12.40;99.90;;;;;;10521064;28;20249;-77
2024/03/31 07:29:13;;;;;;;0.73;0.73;;;12.40;99.90;;;;;;10539056;28;20224;-77
2024/03/31 07:34:16;;;;;;;0.60;0.60;;;12.40;99.90;;;;;;10521156;28;20200;-76
2024/03/31 07:39:19;;;;;;;0.60;0.60;;;12.40;99.90;;;;;;10532216;28;20272;-76
2024/03/31 07:44:22;;;;;;;0.60;0.60;;;12.50;99.90;;;;;;10539228;28;20195;-77
2024/03/31 07:49:25;;;;;;;0.90;0.90;;;12.50;99.90;;;;;;10519791;28;20665;-77
2024/03/31 07:54:27;;;;;;;0.80;0.80;;;12.60;99.90;;;;;;10538038;28;20203;-77
2024/03/31 07:59:31;;;;;;;0.60;0.60;;;12.70;99.90;;;;;;10538339;28;20622;-78
2024/03/31 08:04:33;;;;;;;0.80;0.80;;;12.90;99.90;;;;;;10538139;28;20237;-77
2024/03/31 08:09:36;;;;;;;0.70;0.70;;;13.00;99.90;;;;;;10538167;28;20200;-76
2024/03/31 08:14:39;;;;;;;0.60;0.60;;;13.20;99.90;;;;;;10536970;28;20270;-77
2024/03/31 08:19:41;;;;;;;0.50;0.50;;;13.40;99.90;;;;;;10537209;28;20703;-77
2024/03/31 08:24:46;;;;;;;0.70;0.70;;;13.60;99.90;;;;;;10537357;28;20706;-77
2024/03/31 08:29:50;;;;;;;0.60;0.60;;;13.60;99.90;;;;;;10537242;28;20192;-77
2024/03/31 08:34:52;;;;;;;0.50;0.50;;;13.70;99.90;;;;;;10536487;28;20224;-77
2024/03/31 08:39:55;;;;;;;0.60;0.60;;;13.80;99.70;;;;;;10518585;28;20223;-76
2024/03/31 08:45:02;;;;;;;0.60;0.60;;;14.00;99.60;;;;;;10518123;28;20212;-77
2024/03/31 08:50:05;;;;;;;0.60;0.60;;;14.10;99.50;;;;;;10535796;28;20607;-77
2024/03/31 08:55:08;;;;;;;0.50;0.50;;;14.20;99.20;;;;;;10535896;28;20231;-77
2024/03/31 09:00:13;;;;;;;0.60;0.60;;;14.30;98.90;;;;;;10535722;28;20220;-77
2024/03/31 09:05:16;;;;;;;0.60;0.60;;;14.60;98.10;;;;;;10535586;28;20231;-77
2024/03/31 09:10:19;;;;;;;0.50;0.50;;;14.80;97.10;;;;;;10535559;28;20718;-78
2024/03/31 09:15:23;;;;;;;0.50;0.50;;;15.00;97.20;;;;;;10535068;28;20268;-78
2024/03/31 09:20:25;;;;;;;0.50;0.50;;;15.40;96.70;;;;;;10534739;28;20253;-76
2024/03/31 09:25:28;;;;;;;0.40;0.40;;;15.40;97.10;;;;;;10534556;28;20258;-77
2024/03/31 09:30:32;;;;;;;0.50;0.50;;;15.60;96.00;;;;;;10534176;28;20192;-77
2024/03/31 09:35:34;;;;;;;0.50;0.50;;;15.70;96.20;;;;;;10534515;28;20681;-76
2024/03/31 09:40:37;;;;;;;0.50;0.50;;;15.90;96.00;;;;;;10533721;28;20226;-77
2024/03/31 09:45:45;;;;;;;0.60;0.60;;;16.10;96.00;;;;;;10530015;28;20220;-78
2024/03/31 09:50:54;;;;;;;0.60;0.60;;;16.30;94.50;;;;;;10515083;28;20199;-78
2024/03/31 09:56:02;;;;;;;0.60;0.60;;;16.40;94.90;;;;;;10532165;28;20342;-78
2024/03/31 10:01:08;;;;;;;0.60;0.60;;;16.50;95.30;;;;;;10531252;28;20249;-76
2024/03/31 10:06:13;;;;;;;0.50;0.50;;;16.60;95.10;;;;;;10531418;28;20208;-76
2024/03/31 10:11:15;;;;;;;0.50;0.50;;;16.90;95.10;;;;;;10531837;28;20210;-76
2024/03/31 10:16:19;;;;;;;0.70;0.70;;;17.00;94.50;;;;;;10514598;28;20222;-77
2024/03/31 10:21:22;;;;;;;0.50;0.50;;;16.90;94.60;;;;;;10532488;28;20661;-77
2024/03/31 10:26:25;;;;;;;0.60;0.60;;;16.80;93.50;;;;;;10531924;28;20284;-76
2024/03/31 10:31:29;;;;;;;0.40;0.40;;;16.70;94.00;;;;;;10530088;28;20635;-77
2024/03/31 10:36:32;;;;;;;0.60;0.60;;;16.60;94.40;;;;;;10528653;28;20219;-76
2024/03/31 10:41:35;;;;;;;0.50;0.50;;;16.50;94.60;;;;;;10534079;28;20203;-77
2024/03/31 10:46:39;;;;;;;0.50;0.50;;;16.50;94.40;;;;;;10539415;28;20581;-76
2024/03/31 10:51:42;;;;;;;0.60;0.60;;;16.60;92.60;;;;;;10541213;28;20199;-76
2024/03/31 10:56:44;;;;;;;0.60;0.60;;;16.70;93.20;;;;;;10540708;28;20215;-77
2024/03/31 11:01:48;;;;;;;0.50;0.50;;;16.80;91.00;;;;;;10522755;28;20192;-76
2024/03/31 11:06:52;;;;;;;0.60;0.60;;;17.10;91.10;;;;;;10540329;28;20232;-77
2024/03/31 11:11:55;;;;;;;0.50;0.50;;;17.30;90.40;;;;;;10540204;28;20253;-77
2024/03/31 11:16:58;;;;;;;0.60;0.60;;;17.40;90.40;;;;;;10539611;28;20220;-77
2024/03/31 11:22:03;;;;;;;0.50;0.50;;;17.50;89.70;;;;;;10521967;28;20197;-76
2024/03/31 11:27:06;;;;;;;0.60;0.60;;;17.50;87.90;;;;;;10539244;28;20301;-77
2024/03/31 11:32:11;;;;;;;0.40;0.40;;;17.40;89.50;;;;;;10539462;28;20200;-77
2024/03/31 11:37:13;;;;;;;0.50;0.50;;;17.40;90.00;;;;;;10538938;28;20273;-78
2024/03/31 11:42:16;;;;;;;0.50;0.50;;;17.60;88.90;;;;;;10520268;28;20204;-76
2024/03/31 11:47:20;;;;;;;0.50;0.50;;;17.70;88.10;;;;;;10520454;28;20273;-76
2024/03/31 11:52:22;;;;;;;0.40;0.40;;;17.80;89.30;;;;;;10538144;28;20200;-77
2024/03/31 11:57:25;;;;;;;0.50;0.50;;;17.90;89.90;;;;;;10538360;28;20220;-77
2024/03/31 12:02:28;;;;;;;0.60;0.60;;;18.00;89.80;;;;;;10537585;28;20204;-76
2024/03/31 12:07:31;;;;;;;0.70;0.70;;;18.10;90.30;;;;;;10533418;28;20583;-76
2024/03/31 12:12:34;;;;;;;0.60;0.60;;;18.00;90.40;;;;;;10533114;28;20208;-77
2024/03/31 12:17:38;;;;;;;0.60;0.60;;;18.00;89.90;;;;;;10527089;28;20223;-76
2024/03/31 12:22:41;;;;;;;0.50;0.50;;;18.00;90.20;;;;;;10543933;28;20210;-77
2024/03/31 12:27:44;;;;;;;0.50;0.50;;;18.10;89.70;;;;;;10542798;28;20230;-76
2024/03/31 12:32:48;;;;;;;0.50;0.50;;;18.30;90.50;;;;;;10522982;28;20246;-78
2024/03/31 12:37:53;;;;;;;0.40;0.40;;;18.30;90.30;;;;;;10532251;28;20288;-78
2024/03/31 12:42:55;;;;;;;0.60;0.60;;;18.30;90.80;;;;;;10532794;28;20215;-78
2024/03/31 12:48:02;;;;;;;0.47;0.47;;;18.30;90.30;;;;;;10532438;28;20276;-77
2024/03/31 12:53:06;;;;;;;0.60;0.60;;;18.40;89.10;;;;;;10532847;28;20200;-77
2024/03/31 12:58:09;;;;;;;0.50;0.50;;;18.50;87.60;;;;;;10497248;28;20907;-77
2024/03/31 13:03:15;;;;;;;0.50;0.50;;;18.50;87.40;;;;;;10531339;28;20191;-79
2024/03/31 13:08:20;;;;;;;0.40;0.40;;;18.50;86.50;;;;;;10531811;28;20257;-79
2024/03/31 13:13:23;;;;;;;0.50;0.50;;;18.50;86.50;;;;;;10520827;28;20253;-78
2024/03/31 13:18:27;;;;;;;0.50;0.50;;;18.60;84.90;;;;;;10504653;28;20634;-76
2024/03/31 13:23:29;;;;;;;0.67;0.67;;;18.70;85.60;;;;;;10534182;28;20191;-78
2024/03/31 13:28:31;;;;;;;0.50;0.50;;;18.90;85.10;;;;;;10534469;28;20212;-77
2024/03/31 13:33:35;;;;;;;0.70;0.70;;;19.10;84.60;;;;;;10534429;28;20620;-78
2024/03/31 13:38:37;;;;;;;0.70;0.70;;;19.20;84.10;;;;;;10534581;28;20285;-76
2024/03/31 13:43:40;;;;;;;0.87;0.87;;;19.10;83.80;;;;;;10533983;28;20202;-78
2024/03/31 13:48:43;;;;;;;0.80;0.80;;;18.80;83.30;;;;;;10531344;28;20220;-78
2024/03/31 13:53:46;;;;;;;0.60;0.60;;;18.70;84.70;;;;;;10513522;28;20226;-79
2024/03/31 13:58:48;;;;;;;0.90;0.90;;;18.50;84.40;;;;;;10529011;28;20216;-79
2024/03/31 14:03:52;;;;;;;0.80;0.80;;;18.40;85.20;;;;;;10529051;28;20203;-80
2024/03/31 14:08:54;;;;;;;0.80;0.80;;;18.40;84.20;;;;;;10529615;28;20223;-78
2024/03/31 14:13:56;;;;;;;0.70;0.70;;;18.40;84.30;;;;;;10529697;28;20199;-76
2024/03/31 14:19:00;;;;;;;0.80;0.80;;;18.20;87.20;;;;;;10515185;28;20226;-77
2024/03/31 14:24:02;;;;;;;0.70;0.70;;;18.10;86.20;;;;;;10533344;28;20203;-77
2024/03/31 14:29:05;;;;;;;0.70;0.70;;;18.10;83.40;;;;;;10532172;28;20223;-76
2024/03/31 14:34:08;;;;;;;0.70;0.70;;;18.10;86.20;;;;;;10533143;28;20195;-76
2024/03/31 14:39:11;;;;;;;0.67;0.67;;;17.90;90.00;;;;;;10532114;28;20227;-77
2024/03/31 14:44:13;;;;;;;0.80;0.80;;;17.70;87.10;;;;;;10533180;28;20207;-77
2024/03/31 14:49:17;;;;;;;0.70;0.70;;;17.70;85.50;;;;;;10514206;28;20204;-76
2024/03/31 14:54:19;;;;;;;0.60;0.60;;;17.70;86.90;;;;;;10533211;28;20574;-76
2024/03/31 14:59:22;;;;;;;0.70;0.70;;;17.70;89.40;;;;;;10532477;28;20232;-77
2024/03/31 15:04:25;;;;;;;0.70;0.70;;;17.90;85.40;;;;;;10532512;28;20192;-77
2024/03/31 15:09:28;;;;;;;0.83;0.83;;;18.00;87.40;;;;;;10514511;28;20212;-77
2024/03/31 15:14:30;;;;;;;0.53;0.53;;;18.00;85.10;;;;;;10532402;28;20195;-76
2024/03/31 15:19:34;;;;;;;0.70;0.70;;;18.00;87.10;;;;;;10532271;28;20215;-79
2024/03/31 15:24:36;;;;;;;0.60;0.60;;;17.90;85.70;;;;;;10532513;28;20203;-76
2024/03/31 15:29:40;;;;;;;0.50;0.50;;;17.80;89.40;;;;;;10539961;28;20614;-77
2024/03/31 15:34:44;;;;;;;0.60;0.60;;;17.70;91.10;;;;;;10539388;28;20204;-77
2024/03/31 15:39:46;;;;;;;0.67;0.67;;;17.60;90.70;;;;;;10539103;28;20220;-76
2024/03/31 15:44:48;;;;;;;0.70;0.70;;;17.60;90.80;;;;;;10539142;28;20211;-76
2024/03/31 15:49:52;;;;;;;0.70;0.70;;;17.50;92.00;;;;;;10538823;28;20612;-77
2024/03/31 15:54:54;;;;;;;0.50;0.50;;;17.40;92.60;;;;;;10539187;28;20211;-77
2024/03/31 15:59:57;;;;;;;0.50;0.50;;;17.40;90.90;;;;;;10538438;28;20220;-77
2024/03/31 16:05:00;;;;;;;0.60;0.60;;;17.50;90.90;;;;;;10538486;28;20281;-76
2024/03/31 16:10:03;;;;;;;0.60;0.60;;;17.60;90.60;;;;;;10520359;28;20207;-78
2024/03/31 16:15:06;;;;;;;0.60;0.60;;;17.60;91.40;;;;;;10537923;28;20571;-78
2024/03/31 16:20:10;;;;;;;0.60;0.60;;;17.50;90.40;;;;;;10537860;28;20211;-79
2024/03/31 16:25:13;;;;;;;0.70;0.70;;;17.50;90.60;;;;;;10537378;28;20261;-77
2024/03/31 16:30:15;;;;;;;0.50;0.50;;;17.40;91.30;;;;;;10537294;28;20192;-79
2024/03/31 16:35:19;;;;;;;0.50;0.50;;;17.30;91.30;;;;;;10537133;28;20215;-76
2024/03/31 16:40:21;;;;;;;0.70;0.70;;;17.20;91.30;;;;;;10537214;28;20426;-79
2024/03/31 16:45:24;;;;;;;0.60;0.60;;;17.20;90.60;;;;;;10536147;28;20237;-77
2024/03/31 16:50:28;;;;;;;0.50;0.50;;;17.00;92.00;;;;;;10536128;28;20603;-77
2024/03/31 16:55:30;;;;;;;0.80;0.80;;;17.00;93.10;;;;;;10536457;28;20208;-77
2024/03/31 17:00:33;;;;;;;0.60;0.60;;;16.80;92.80;;;;;;10536383;28;20216;-77
2024/03/31 17:05:36;;;;;;;0.60;0.60;;;16.80;93.30;;;;;;10536157;28;20212;-77
2024/03/31 17:10:39;;;;;;;0.70;0.70;;;16.70;93.20;;;;;;10535724;28;20192;-79
2024/03/31 17:15:41;;;;;;;0.60;0.60;;;16.60;93.90;;;;;;10517476;28;20745;-76
2024/03/31 17:20:45;;;;;;;0.70;0.70;;;16.50;94.60;;;;;;10535396;28;20212;-76
2024/03/31 17:25:54;;;;;;;0.60;0.60;;;16.40;94.30;;;;;;10535022;28;20215;-77
2024/03/31 17:30:56;;;;;;;0.60;0.60;;;16.40;94.60;;;;;;10535087;28;20607;-77
2024/03/31 17:36:01;;;;;;;0.50;0.50;;;16.30;94.50;;;;;;10534712;28;20701;-76
2024/03/31 17:41:04;;;;;;;0.60;0.60;;;16.40;94.40;;;;;;10534738;28;20640;-76
2024/03/31 17:46:08;;;;;;;0.60;0.60;;;16.50;94.40;;;;;;10534368;28;20212;-79
2024/03/31 17:51:13;;;;;;;0.60;0.60;;;16.50;94.40;;;;;;10533839;28;20184;-77
2024/03/31 17:56:16;;;;;;;0.40;0.40;;;16.60;94.40;;;;;;10516083;28;20237;-77
2024/03/31 18:01:19;;;;;;;0.70;0.70;;;16.60;94.30;;;;;;10533907;28;20220;-77
2024/03/31 18:06:23;;;;;;;0.50;0.50;;;16.50;94.40;;;;;;10533526;28;20223;-78
2024/03/31 18:11:25;;;;;;;0.50;0.50;;;16.50;94.40;;;;;;10533667;28;20257;-78
2024/03/31 18:16:29;;;;;;;0.50;0.50;;;16.40;94.30;;;;;;10515120;28;20298;-77
2024/03/31 18:21:33;;;;;;;0.60;0.60;;;16.40;94.30;;;;;;10533374;28;20284;-79
2024/03/31 18:32:05;;;;;;;0.50;0.50;;;16.30;94.40;;;;;;10373772;28;20186;-83
2024/03/31 18:37:08;;;;;;;0.50;0.50;;;16.20;94.50;;;;;;10371017;28;20222;-81
2024/03/31 18:42:16;;;;;;;0.60;0.60;;;16.00;94.50;;;;;;10375047;28;20230;-80
2024/03/31 18:47:18;;;;;;;0.50;0.50;;;15.90;94.50;;;;;;10380341;28;20244;-81
2024/03/31 18:52:24;;;;;;;0.50;0.50;;;15.80;94.40;;;;;;10368658;28;20202;-82
2024/03/31 18:57:29;;;;;;;0.50;0.50;;;15.60;94.30;;;;;;10345281;28;20210;-83
2024/03/31 19:02:32;;;;;;;0.40;0.40;;;15.50;94.40;;;;;;10376637;28;20214;-81
2024/03/31 19:07:39;;;;;;;0.43;0.43;;;15.40;94.50;;;;;;10380968;28;20230;-79
2024/03/31 19:12:41;;;;;;;0.50;0.50;;;15.30;94.70;;;;;;10384975;28;20244;-80
2024/03/31 19:17:43;;;;;;;0.50;0.50;;;15.20;94.80;;;;;;10386628;28;20229;-82
2024/03/31 19:22:47;;;;;;;0.70;0.70;;;15.00;94.80;;;;;;10381589;28;20210;-80
2024/03/31 19:27:49;;;;;;;0.60;0.60;;;14.90;94.90;;;;;;10378326;28;20225;-79
2024/03/31 19:32:52;;;;;;;0.50;0.50;;;14.90;95.00;;;;;;10366443;28;20210;-81
2024/03/31 19:37:56;;;;;;;0.50;0.50;;;14.90;95.00;;;;;;10377926;28;20237;-79
2024/03/31 19:42:59;;;;;;;0.50;0.50;;;14.80;95.00;;;;;;10377540;28;20210;-81
2024/03/31 19:48:01;;;;;;;0.50;0.50;;;14.90;95.10;;;;;;10377170;28;20233;-81
2024/03/31 19:53:05;;;;;;;0.50;0.50;;;14.90;95.40;;;;;;10376326;28;20195;-81
2024/03/31 19:58:07;;;;;;;0.60;0.60;;;14.80;95.50;;;;;;10377838;28;20650;-80
2024/03/31 20:03:10;;;;;;;0.50;0.50;;;14.80;95.70;;;;;;10376335;28;20223;-79
2024/03/31 20:08:13;;;;;;;0.60;0.60;;;14.80;95.90;;;;;;10378471;28;20227;-82
2024/03/31 20:13:16;;;;;;;0.60;0.60;;;14.70;96.20;;;;;;10376276;28;20954;-80
2024/03/31 20:18:18;;;;;;;0.80;0.80;;;14.70;96.50;;;;;;10376277;28;20234;-80
2024/03/31 20:23:22;;;;;;;0.70;0.70;;;14.70;96.80;;;;;;10377633;28;20222;-80
2024/03/31 20:28:24;;;;;;;0.50;0.50;;;14.80;96.70;;;;;;10376500;28;20230;-81
2024/03/31 20:33:27;;;;;;;0.60;0.60;;;14.90;97.00;;;;;;10378397;28;20206;-82
2024/03/31 20:38:30;;;;;;;0.67;0.67;;;15.00;96.90;;;;;;10361206;28;20710;-80
2024/03/31 20:43:34;;;;;;;0.77;0.77;;;15.10;96.80;;;;;;10379671;28;20222;-81
2024/03/31 20:48:37;;;;;;;0.50;0.50;;;15.20;96.80;;;;;;10374618;28;20281;-78
2024/03/31 20:53:43;;;;;;;0.50;0.50;;;15.20;96.70;;;;;;10375032;28;21234;-79
2024/03/31 20:58:45;;;;;;;0.67;0.67;;;15.10;96.70;;;;;;10370822;28;20326;-81
2024/03/31 21:03:48;;;;;;;0.50;0.50;;;15.10;96.60;;;;;;10378447;28;20206;-80
2024/03/31 21:08:53;;;;;;;0.50;0.50;;;15.10;96.40;;;;;;10374850;28;20234;-80
2024/03/31 21:13:55;;;;;;;0.50;0.50;;;15.10;96.00;;;;;;10375405;28;20199;-81
2024/03/31 21:18:58;;;;;;;0.60;0.60;;;15.10;95.70;;;;;;10370187;28;20226;-79
2024/03/31 21:24:01;;;;;;;0.60;0.60;;;15.20;95.60;;;;;;10370911;28;20572;-79
2024/03/31 21:29:05;;;;;;;0.50;0.50;;;15.10;95.70;;;;;;10372732;28;20272;-80
2024/03/31 21:34:07;;;;;;;0.40;0.40;;;15.10;95.80;;;;;;10373198;28;20207;-80
2024/03/31 21:39:12;;;;;;;0.40;0.40;;;15.20;95.50;;;;;;10372634;28;20651;-79
2024/03/31 21:44:14;;;;;;;0.40;0.40;;;15.10;95.50;;;;;;10347097;28;20206;-78
2024/03/31 21:49:20;;;;;;;0.30;0.30;;;15.10;95.90;;;;;;10366950;28;20238;-77
2024/03/31 21:54:24;;;;;;;0.50;0.50;;;15.00;96.00;;;;;;10369536;28;20644;-79
2024/03/31 21:59:27;;;;;;;0.30;0.30;;;15.00;96.20;;;;;;10366101;28;20230;-79
2024/03/31 22:04:31;;;;;;;0.30;0.30;;;15.00;96.10;;;;;;10373469;28;20207;-79
2024/03/31 22:09:35;;;;;;;0.40;0.40;;;15.00;96.30;;;;;;10371169;28;20226;-78
2024/03/31 22:14:37;;;;;;;0.40;0.40;;;14.90;96.40;;;;;;10353098;28;20754;-78
2024/03/31 22:19:40;;;;;;;0.40;0.40;;;14.90;96.90;;;;;;10367652;28;20581;-79
2024/03/31 22:24:44;;;;;;;0.50;0.50;;;14.90;96.70;;;;;;10372009;28;20207;-79
2024/03/31 22:29:47;;;;;;;0.30;0.30;;;14.80;96.90;;;;;;10371328;28;20715;-80
2024/03/31 22:34:49;;;;;;;0.40;0.40;;;14.80;97.30;;;;;;10376019;28;20213;-79
2024/03/31 22:39:53;;;;;;;0.57;0.57;;;14.70;97.40;;;;;;10385379;28;20284;-78
2024/03/31 22:44:55;;;;;;;0.50;0.50;;;14.70;97.20;;;;;;10385444;28;20260;-78
2024/03/31 22:49:57;;;;;;;0.40;0.40;;;14.70;96.90;;;;;;10385293;28;20222;-81
2024/03/31 22:55:01;;;;;;;0.50;0.50;;;14.70;97.10;;;;;;10385863;28;20202;-80
2024/03/31 23:00:06;;;;;;;0.50;0.50;;;14.70;97.40;;;;;;10379814;28;20233;-81
2024/03/31 23:05:09;;;;;;;0.40;0.40;;;14.60;97.60;;;;;;10394486;28;20202;-80
2024/03/31 23:10:13;;;;;;;0.40;0.40;;;14.60;97.60;;;;;;10401043;28;20637;-80
2024/03/31 23:15:15;;;;;;;0.40;0.40;;;14.70;97.50;;;;;;10395142;28;20225;-78
2024/03/31 23:20:18;;;;;;;0.50;0.50;;;14.60;97.70;;;;;;10373652;28;20308;-80
2024/03/31 23:25:21;;;;;;;0.50;0.50;;;14.70;97.30;;;;;;10381684;28;20672;-79
2024/03/31 23:30:24;;;;;;;0.40;0.40;;;14.60;97.90;;;;;;10382767;28;20797;-79
2024/03/31 23:35:26;;;;;;;0.40;0.40;;;14.60;97.90;;;;;;10383180;28;20210;-80
2024/03/31 23:40:30;;;;;;;0.40;0.40;;;14.60;98.20;;;;;;10382165;28;20226;-80
2024/03/31 23:45:32;;;;;;;0.30;0.30;;;14.60;97.70;;;;;;10381144;28;20203;-79
2024/03/31 23:50:34;;;;;;;0.40;0.40;;;14.60;97.80;;;;;;10377223;28;20272;-81
2024/03/31 23:55:38;;;;;;;0.40;0.40;;;14.50;97.80;;;;;;10376703;28;20208;-79
